MDT,Max TemperatureF,Mean TemperatureF,Min TemperatureF,Max Dew PointF,MeanDew PointF,Min DewpointF,Max Humidity, Mean Humidity, Min Humidity, Max Sea Level PressureIn, Mean Sea Level PressureIn, Min Sea Level PressureIn, Max VisibilityMiles, Mean VisibilityMiles, Min VisibilityMiles, Max Wind SpeedMPH, Mean Wind SpeedMPH, Max Gust SpeedMPH,PrecipitationIn, CloudCover, Events, WindDirDegrees
2013-3-1,52,44,36,44,38,35,100,92,74,30.56,30.51,30.45,,,,4,0,,0.11,,,315
2013-3-2,53,46,39,42,39,36,97,87,63,30.47,30.26,30.06,,,,5,2,,0.34,,,351
2013-3-3,48,39,30,40,35,30,100,90,66,30.26,30.13,29.96,,,,6,1,,0.59,,,350
2013-3-4,54,40,28,32,29,24,96,79,35,30.40,30.29,30.21,,,,4,0,,0.00,,,350
2013-3-5,48,37,28,33,28,23,96,76,39,30.24,30.08,29.89,,,,7,3,,0.00,,,350
2013-3-6,50,40,35,42,37,32,97,89,71,29.98,29.79,29.67,,,,8,2,,0.25,,,345
2013-3-7,59,45,32,39,35,30,100,83,35,30.14,30.08,30.01,,,,4,1,,0.00,,,345
2013-3-8,55,42,30,34,30,28,96,79,36,30.20,30.09,29.97,,,,9,1,,0.00,,,160
2013-3-9,53,40,28,37,31,27,96,79,43,30.54,30.39,30.21,,,,6,0,,0.00,,,60
2013-3-10,55,42,28,39,32,27,97,78,37,30.58,30.45,30.30,,,,5,2,,0.06,,,343
2013-3-11,61,49,36,41,38,34,97,83,38,30.38,30.33,30.26,,,,4,0,,0.02,,,347
2013-3-12,53,44,35,43,37,33,97,86,59,30.34,30.27,30.18,,,,5,2,,0.03,,,344
2013-3-13,55,47,39,43,40,37,93,83,60,30.31,30.26,30.22,,,,4,0,,0.00,,,350
2013-3-14,57,46,35,45,38,34,97,81,47,30.31,30.19,30.06,,,,6,2,,0.00,,,344
2013-3-15,66,52,39,42,39,36,93,73,32,30.23,30.15,30.06,,,,6,1,,0.00,,,314
2013-3-16,57,47,37,44,39,35,97,84,53,30.13,30.00,29.83,,,,4,2,,0.48,,,344
2013-3-17,39,36,34,39,34,33,100,94,82,30.18,30.04,29.80,,,,5,1,,0.39,,,310
2013-3-18,48,40,33,35,33,29,96,85,46,30.22,30.15,30.06,,,,10,0,,0.08,,,350
2013-3-19,57,44,30,38,32,26,96,74,33,30.40,30.23,30.01,,,,5,1,,0.00,,,1
2013-3-20,57,46,36,45,39,35,97,87,59,29.96,29.81,29.55,,,,9,2,16,0.82,,,347
2013-3-21,39,36,33,35,33,28,100,92,68,30.17,30.10,29.94,,,,6,1,,0.24,,,310
2013-3-22,39,36,32,33,32,30,100,92,73,30.36,30.22,30.13,,,,6,0,,0.19,,,-1
2013-3-23,46,39,32,33,31,28,96,85,52,30.44,30.40,30.35,,,,5,1,16,0.08,,,250
2013-3-24,53,40,27,31,27,21,96,74,30,30.49,30.38,30.27,,,,4,1,,0.00,,,357
2013-3-25,60,44,27,36,29,23,96,73,30,30.34,30.20,30.06,,,,5,1,,0.00,,,340
2013-3-26,66,49,32,39,34,30,96,72,28,30.12,30.02,29.91,,,,5,1,,0.00,,,347
2013-3-27,66,50,35,44,37,33,96,75,35,30.08,30.01,29.91,,,,6,1,,0.01,,,342
2013-3-28,61,49,37,49,41,36,97,82,46,30.16,30.09,30.00,,,,7,1,,0.03,,,256
2013-3-29,57,50,44,48,44,41,97,88,62,30.31,30.24,30.16,,,,7,0,,0.07,,,180
2013-3-30,70,56,41,43,40,36,96,74,29,30.38,30.27,30.15,,,,5,1,,0.00,,,353
2013-3-31,71,52,34,46,38,32,97,74,31,30.24,30.08,29.91,,,,6,3,,0.00,,,338